sensor_id;sensor_type;location;lat;lon;timestamp;pressure;altitude;pressure_sealevel;temperature;humidity
48390;BME280;34643;47.964;7.982;2023-05-06T00:00:57;96816.66;;;19.66;63.07
48390;BME280;34643;47.964;7.982;2023-05-06T00:05:57;96813.22;;;19.65;63.06
48390;BME280;34643;47.964;7.982;2023-05-06T00:10:57;96813.22;;;19.65;63.09
48390;BME280;34643;47.964;7.982;2023-05-06T00:15:58;96812.38;;;19.65;63.03
48390;BME280;34643;47.964;7.982;2023-05-06T00:20:58;96807.13;;;19.65;63.02
48390;BME280;34643;47.964;7.982;2023-05-06T00:25:58;96806.31;;;19.64;63.20
48390;BME280;34643;47.964;7.982;2023-05-06T00:30:58;96807.13;;;19.65;63.06
48390;BME280;34643;47.964;7.982;2023-05-06T00:35:59;96808.00;;;19.65;63.08
48390;BME280;34643;47.964;7.982;2023-05-06T00:40:59;96800.25;;;19.64;63.08
48390;BME280;34643;47.964;7.982;2023-05-06T00:45:59;96795.84;;;19.64;63.21
48390;BME280;34643;47.964;7.982;2023-05-06T00:51:00;96790.59;;;19.64;63.14
48390;BME280;34643;47.964;7.982;2023-05-06T00:56:00;96788.81;;;19.65;63.30
48390;BME280;34643;47.964;7.982;2023-05-06T01:01:01;96801.09;;;19.64;63.38
48390;BME280;34643;47.964;7.982;2023-05-06T01:16:28;96796.81;;;19.63;63.38
48390;BME280;34643;47.964;7.982;2023-05-06T01:21:29;96788.00;;;19.64;63.36
48390;BME280;34643;47.964;7.982;2023-05-06T01:26:33;96791.59;;;19.63;63.54
48390;BME280;34643;47.964;7.982;2023-05-06T01:31:39;96794.19;;;19.63;63.49
48390;BME280;34643;47.964;7.982;2023-05-06T01:41:49;96802.88;;;19.64;63.43
48390;BME280;34643;47.964;7.982;2023-05-06T01:46:50;96788.13;;;19.63;63.48
48390;BME280;34643;47.964;7.982;2023-05-06T01:51:51;96788.13;;;19.63;63.69
48390;BME280;34643;47.964;7.982;2023-05-06T01:56:51;96773.38;;;19.62;63.67
48390;BME280;34643;47.964;7.982;2023-05-06T02:01:53;96781.25;;;19.62;63.65
48390;BME280;34643;47.964;7.982;2023-05-06T02:06:53;96776.00;;;19.62;63.60
48390;BME280;34643;47.964;7.982;2023-05-06T02:11:54;96778.63;;;19.62;63.85
48390;BME280;34643;47.964;7.982;2023-05-06T02:16:55;96770.75;;;19.62;63.95
48390;BME280;34643;47.964;7.982;2023-05-06T02:21:55;96782.19;;;19.61;63.90
48390;BME280;34643;47.964;7.982;2023-05-06T02:26:56;96781.47;;;19.59;64.18
48390;BME280;34643;47.964;7.982;2023-05-06T02:31:57;96787.53;;;19.59;63.93
48390;BME280;34643;47.964;7.982;2023-05-06T02:36:57;96779.81;;;19.57;63.95
48390;BME280;34643;47.964;7.982;2023-05-06T02:41:57;96777.19;;;19.57;63.82
48390;BME280;34643;47.964;7.982;2023-05-06T02:46:57;96780.78;;;19.56;63.80
48390;BME280;34643;47.964;7.982;2023-05-06T02:51:58;96772.13;;;19.56;63.99
48390;BME280;34643;47.964;7.982;2023-05-06T02:56:58;96760.78;;;19.55;63.76
48390;BME280;34643;47.964;7.982;2023-05-06T03:01:59;96759.16;;;19.54;63.87
48390;BME280;34643;47.964;7.982;2023-05-06T03:06:59;96758.16;;;19.55;63.71
48390;BME280;34643;47.964;7.982;2023-05-06T03:11:59;96758.28;;;19.54;63.77
48390;BME280;34643;47.964;7.982;2023-05-06T03:17:01;96759.28;;;19.53;63.60
48390;BME280;34643;47.964;7.982;2023-05-06T03:22:03;96760.22;;;19.52;63.97
48390;BME280;34643;47.964;7.982;2023-05-06T03:27:06;96755.84;;;19.52;63.64
48390;BME280;34643;47.964;7.982;2023-05-06T03:32:06;96752.47;;;19.50;63.76
48390;BME280;34643;47.964;7.982;2023-05-06T03:37:13;96748.09;;;19.51;63.70
48390;BME280;34643;47.964;7.982;2023-05-06T03:42:20;96748.09;;;19.51;63.59
48390;BME280;34643;47.964;7.982;2023-05-06T03:47:21;96747.25;;;19.50;63.46
48390;BME280;34643;47.964;7.982;2023-05-06T03:52:22;96752.47;;;19.50;63.48
48390;BME280;34643;47.964;7.982;2023-05-06T03:57:22;96751.66;;;19.50;63.62
48390;BME280;34643;47.964;7.982;2023-05-06T04:02:23;96757.84;;;19.49;63.56
48390;BME280;34643;47.964;7.982;2023-05-06T04:07:24;96756.19;;;19.48;63.47
48390;BME280;34643;47.964;7.982;2023-05-06T04:12:25;96752.75;;;19.47;63.46
48390;BME280;34643;47.964;7.982;2023-05-06T04:17:26;96753.59;;;19.48;63.41
48390;BME280;34643;47.964;7.982;2023-05-06T04:22:27;96762.25;;;19.48;63.48
48390;BME280;34643;47.964;7.982;2023-05-06T04:27:28;96765.97;;;19.46;63.26
48390;BME280;34643;47.964;7.982;2023-05-06T04:32:29;96771.09;;;19.47;63.47
48390;BME280;34643;47.964;7.982;2023-05-06T04:37:30;96769.41;;;19.46;63.38
48390;BME280;34643;47.964;7.982;2023-05-06T04:42:39;96767.75;;;19.45;63.37
48390;BME280;34643;47.964;7.982;2023-05-06T04:47:44;96761.56;;;19.46;63.48
48390;BME280;34643;47.964;7.982;2023-05-06T04:52:45;96758.13;;;19.46;63.34
48390;BME280;34643;47.964;7.982;2023-05-06T04:57:46;96767.63;;;19.47;63.24
48390;BME280;34643;47.964;7.982;2023-05-06T05:02:47;96761.56;;;19.46;63.35
48390;BME280;34643;47.964;7.982;2023-05-06T05:07:49;96752.75;;;19.47;63.11
48390;BME280;34643;47.964;7.982;2023-05-06T05:12:50;96757.72;;;19.50;63.02
48390;BME280;34643;47.964;7.982;2023-05-06T05:17:50;96766.44;;;19.51;63.22
48390;BME280;34643;47.964;7.982;2023-05-06T05:22:51;96761.06;;;19.52;63.37
48390;BME280;34643;47.964;7.982;2023-05-06T05:27:52;96759.28;;;19.53;63.44
48390;BME280;34643;47.964;7.982;2023-05-06T05:32:52;96760.22;;;19.52;63.45
48390;BME280;34643;47.964;7.982;2023-05-06T05:37:53;96769.03;;;19.51;63.53
48390;BME280;34643;47.964;7.982;2023-05-06T05:42:53;96772.47;;;19.51;63.59
48390;BME280;34643;47.964;7.982;2023-05-06T05:48:00;96770.56;;;19.53;63.38
48390;BME280;34643;47.964;7.982;2023-05-06T05:53:01;96769.50;;;19.56;63.40
48390;BME280;34643;47.964;7.982;2023-05-06T05:58:01;96764.38;;;19.54;63.42
48390;BME280;34643;47.964;7.982;2023-05-06T06:03:03;96772.94;;;19.56;63.49
48390;BME280;34643;47.964;7.982;2023-05-06T06:08:03;96774.84;;;19.54;63.17
48390;BME280;34643;47.964;7.982;2023-05-06T06:13:03;96771.25;;;19.55;63.31
48390;BME280;34643;47.964;7.982;2023-05-06T06:18:06;96781.59;;;19.57;63.12
48390;BME280;34643;47.964;7.982;2023-05-06T06:23:08;96791.00;;;19.60;63.08
48390;BME280;34643;47.964;7.982;2023-05-06T06:28:09;96798.59;;;19.63;63.03
48390;BME280;34643;47.964;7.982;2023-05-06T06:33:09;96796.53;;;19.66;63.02
48390;BME280;34643;47.964;7.982;2023-05-06T06:38:10;96792.84;;;19.69;62.68
48390;BME280;34643;47.964;7.982;2023-05-06T06:43:10;96796.16;;;19.71;62.44
48390;BME280;34643;47.964;7.982;2023-05-06T06:48:22;96796.16;;;19.71;62.40
48390;BME280;34643;47.964;7.982;2023-05-06T06:53:23;96801.19;;;19.74;62.39
48390;BME280;34643;47.964;7.982;2023-05-06T06:58:23;96795.94;;;19.74;62.28
48390;BME280;34643;47.964;7.982;2023-05-06T07:03:23;96789.25;;;19.70;62.37
48390;BME280;34643;47.964;7.982;2023-05-06T07:08:23;96787.38;;;19.72;62.30
48390;BME280;34643;47.964;7.982;2023-05-06T07:13:24;96794.03;;;19.76;62.28
48390;BME280;34643;47.964;7.982;2023-05-06T07:18:24;96796.78;;;19.74;62.12
48390;BME280;34643;47.964;7.982;2023-05-06T07:23:24;96801.19;;;19.74;62.06
48390;BME280;34643;47.964;7.982;2023-05-06T07:28:25;96812.50;;;19.74;61.72
48390;BME280;34643;47.964;7.982;2023-05-06T07:33:25;96808.81;;;19.66;61.48
48390;BME280;34643;47.964;7.982;2023-05-06T07:38:25;96811.38;;;19.56;61.00
48390;BME280;34643;47.964;7.982;2023-05-06T07:43:26;96811.56;;;19.64;61.33
48390;BME280;34643;47.964;7.982;2023-05-06T07:48:26;96808.13;;;19.64;61.33
48390;BME280;34643;47.964;7.982;2023-05-06T07:53:27;96816.22;;;19.61;61.14
48390;BME280;34643;47.964;7.982;2023-05-06T07:58:27;96819.09;;;19.57;60.72
48390;BME280;34643;47.964;7.982;2023-05-06T08:03:31;96809.47;;;19.58;60.81
48390;BME280;34643;47.964;7.982;2023-05-06T08:08:31;96814.81;;;19.56;60.51
48390;BME280;34643;47.964;7.982;2023-05-06T08:13:31;96811.50;;;19.54;60.52
48390;BME280;34643;47.964;7.982;2023-05-06T08:18:32;96810.34;;;19.47;60.16
48390;BME280;34643;47.964;7.982;2023-05-06T08:23:32;96820.84;;;19.36;60.12
48390;BME280;34643;47.964;7.982;2023-05-06T08:28:33;96831.13;;;19.28;59.95
48390;BME280;34643;47.964;7.982;2023-05-06T08:33:33;96822.06;;;19.32;59.76
48390;BME280;34643;47.964;7.982;2023-05-06T08:38:33;96823.22;;;19.39;59.87
48390;BME280;34643;47.964;7.982;2023-05-06T08:43:35;96822.13;;;19.42;59.58
48390;BME280;34643;47.964;7.982;2023-05-06T08:48:39;96816.28;;;19.49;59.66
48390;BME280;34643;47.964;7.982;2023-05-06T08:53:45;96814.63;;;19.48;59.73
48390;BME280;34643;47.964;7.982;2023-05-06T08:58:46;96808.69;;;19.46;59.90
48390;BME280;34643;47.964;7.982;2023-05-06T09:03:47;96816.53;;;19.46;60.05
48390;BME280;34643;47.964;7.982;2023-05-06T09:08:47;96806.88;;;19.47;59.96
48390;BME280;34643;47.964;7.982;2023-05-06T09:13:48;96810.06;;;19.50;59.89
48390;BME280;34643;47.964;7.982;2023-05-06T09:18:48;96801.97;;;19.53;59.90
48390;BME280;34643;47.964;7.982;2023-05-06T09:23:48;96801.16;;;19.53;60.08
48390;BME280;34643;47.964;7.982;2023-05-06T09:28:49;96798.41;;;19.54;60.18
48390;BME280;34643;47.964;7.982;2023-05-06T09:33:50;96790.56;;;19.54;60.31
48390;BME280;34643;47.964;7.982;2023-05-06T09:38:51;96786.16;;;19.55;60.41
48390;BME280;34643;47.964;7.982;2023-05-06T09:43:53;96774.72;;;19.56;60.23
48390;BME280;34643;47.964;7.982;2023-05-06T09:48:54;96775.56;;;19.56;60.39
48390;BME280;34643;47.964;7.982;2023-05-06T09:53:55;96779.81;;;19.57;60.35
48390;BME280;34643;47.964;7.982;2023-05-06T09:58:57;96776.25;;;19.59;60.64
48390;BME280;34643;47.964;7.982;2023-05-06T10:03:57;96768.41;;;19.59;60.57
48390;BME280;34643;47.964;7.982;2023-05-06T10:08:58;96760.53;;;19.59;60.67
48390;BME280;34643;47.964;7.982;2023-05-06T10:13:59;96751.75;;;19.60;60.77
48390;BME280;34643;47.964;7.982;2023-05-06T10:18:59;96739.47;;;19.60;60.78
48390;BME280;34643;47.964;7.982;2023-05-06T10:24:03;96741.97;;;19.62;60.84
48390;BME280;34643;47.964;7.982;2023-05-06T10:29:07;96733.13;;;19.63;60.91
48390;BME280;34643;47.964;7.982;2023-05-06T10:34:08;96725.28;;;19.63;61.08
48390;BME280;34643;47.964;7.982;2023-05-06T10:39:08;96718.28;;;19.63;61.20
48390;BME280;34643;47.964;7.982;2023-05-06T10:44:09;96730.38;;;19.64;61.06
48390;BME280;34643;47.964;7.982;2023-05-06T10:54:21;96712.88;;;19.65;61.12
48390;BME280;34643;47.964;7.982;2023-05-06T10:59:23;96719.78;;;19.66;61.26
48390;BME280;34643;47.964;7.982;2023-05-06T11:04:23;96718.00;;;19.66;61.23
48390;BME280;34643;47.964;7.982;2023-05-06T11:09:26;96703.94;;;19.67;61.26
48390;BME280;34643;47.964;7.982;2023-05-06T11:14:35;96712.63;;;19.68;61.22
48390;BME280;34643;47.964;7.982;2023-05-06T11:19:36;96709.06;;;19.69;61.29
48390;BME280;34643;47.964;7.982;2023-05-06T11:24:38;96711.69;;;19.69;61.35
48390;BME280;34643;47.964;7.982;2023-05-06T11:29:38;96711.56;;;19.70;61.36
48390;BME280;34643;47.964;7.982;2023-05-06T11:34:41;96707.13;;;19.71;61.41
48390;BME280;34643;47.964;7.982;2023-05-06T11:39:46;96699.28;;;19.71;61.42
48390;BME280;34643;47.964;7.982;2023-05-06T11:44:46;96705.34;;;19.71;61.51
48390;BME280;34643;47.964;7.982;2023-05-06T11:49:48;96699.97;;;19.73;61.47
48390;BME280;34643;47.964;7.982;2023-05-06T11:54:50;96680.72;;;19.74;61.28
48390;BME280;34643;47.964;7.982;2023-05-06T11:59:54;96687.75;;;19.73;61.39
48390;BME280;34643;47.964;7.982;2023-05-06T12:04:54;96687.59;;;19.75;61.52
48390;BME280;34643;47.964;7.982;2023-05-06T12:09:55;96687.59;;;19.75;61.52
48390;BME280;34643;47.964;7.982;2023-05-06T12:14:57;96689.28;;;19.76;61.52
48390;BME280;34643;47.964;7.982;2023-05-06T12:19:58;96690.91;;;19.77;61.48
48390;BME280;34643;47.964;7.982;2023-05-06T12:25:10;96680.44;;;19.77;61.58
48390;BME280;34643;47.964;7.982;2023-05-06T12:30:11;96675.22;;;19.77;61.48
48390;BME280;34643;47.964;7.982;2023-05-06T12:35:23;96671.63;;;19.78;61.53
48390;BME280;34643;47.964;7.982;2023-05-06T12:40:23;96669.72;;;19.80;61.59
48390;BME280;34643;47.964;7.982;2023-05-06T12:45:23;96660.22;;;19.79;61.64
48390;BME280;34643;47.964;7.982;2023-05-06T12:50:34;96672.34;;;19.80;61.71
48390;BME280;34643;47.964;7.982;2023-05-06T12:55:35;96668.78;;;19.81;61.63
48390;BME280;34643;47.964;7.982;2023-05-06T13:00:36;96662.69;;;19.81;61.58
48390;BME280;34643;47.964;7.982;2023-05-06T13:05:36;96653.88;;;19.82;61.63
48390;BME280;34643;47.964;7.982;2023-05-06T13:10:37;96660.91;;;19.81;61.71
48390;BME280;34643;47.964;7.982;2023-05-06T13:15:37;96646.84;;;19.82;61.64
48390;BME280;34643;47.964;7.982;2023-05-06T13:20:38;96645.88;;;19.83;61.60
48390;BME280;34643;47.964;7.982;2023-05-06T13:25:38;96642.44;;;19.83;61.66
48390;BME280;34643;47.964;7.982;2023-05-06T13:30:38;96637.22;;;19.83;61.70
48390;BME280;34643;47.964;7.982;2023-05-06T13:35:38;96638.03;;;19.83;61.66
48390;BME280;34643;47.964;7.982;2023-05-06T13:40:39;96632.78;;;19.83;61.50
48390;BME280;34643;47.964;7.982;2023-05-06T13:45:39;96622.19;;;19.85;61.56
48390;BME280;34643;47.964;7.982;2023-05-06T13:50:42;96617.78;;;19.85;61.73
48390;BME280;34643;47.964;7.982;2023-05-06T13:55:43;96615.16;;;19.85;61.59
48390;BME280;34643;47.964;7.982;2023-05-06T14:00:43;96607.28;;;19.85;61.60
48390;BME280;34643;47.964;7.982;2023-05-06T14:05:44;96610.72;;;19.86;61.72
48390;BME280;34643;47.964;7.982;2023-05-06T14:10:44;96600.25;;;19.86;61.75
48390;BME280;34643;47.964;7.982;2023-05-06T14:15:45;96595.00;;;19.86;61.66
48390;BME280;34643;47.964;7.982;2023-05-06T14:20:45;96606.19;;;19.88;61.57
48390;BME280;34643;47.964;7.982;2023-05-06T14:25:45;96593.09;;;19.88;61.66
48390;BME280;34643;47.964;7.982;2023-05-06T14:30:45;96587.84;;;19.88;61.70
48390;BME280;34643;47.964;7.982;2023-05-06T14:35:46;96591.31;;;19.88;61.66
48390;BME280;34643;47.964;7.982;2023-05-06T14:40:46;96593.94;;;19.88;61.67
48390;BME280;34643;47.964;7.982;2023-05-06T14:45:47;96585.94;;;19.90;61.70
48390;BME280;34643;47.964;7.982;2023-05-06T14:50:47;96592.97;;;19.89;61.69
48390;BME280;34643;47.964;7.982;2023-05-06T14:55:47;96594.63;;;19.90;61.76
48390;BME280;34643;47.964;7.982;2023-05-06T15:00:47;96585.94;;;19.90;61.69
48390;BME280;34643;47.964;7.982;2023-05-06T15:05:48;96578.91;;;19.90;61.78
48390;BME280;34643;47.964;7.982;2023-05-06T15:10:49;96585.94;;;19.90;61.73
48390;BME280;34643;47.964;7.982;2023-05-06T15:15:50;96586.78;;;19.90;61.72
48390;BME280;34643;47.964;7.982;2023-05-06T15:20:50;96581.53;;;19.90;61.71
48390;BME280;34643;47.964;7.982;2023-05-06T15:25:51;96582.34;;;19.91;61.71
48390;BME280;34643;47.964;7.982;2023-05-06T15:30:51;96590.22;;;19.91;61.76
48390;BME280;34643;47.964;7.982;2023-05-06T15:35:51;96594.50;;;19.92;61.63
48390;BME280;34643;47.964;7.982;2023-05-06T15:40:52;96599.72;;;19.92;61.61
48390;BME280;34643;47.964;7.982;2023-05-06T15:45:52;96592.81;;;19.91;61.74
48390;BME280;34643;47.964;7.982;2023-05-06T15:50:52;96583.16;;;19.91;61.71
48390;BME280;34643;47.964;7.982;2023-05-06T15:55:53;96582.22;;;19.92;61.68
48390;BME280;34643;47.964;7.982;2023-05-06T16:00:53;96583.03;;;19.93;61.73
48390;BME280;34643;47.964;7.982;2023-05-06T16:05:55;96584.84;;;19.92;61.73
48390;BME280;34643;47.964;7.982;2023-05-06T16:10:55;96579.59;;;19.92;61.67
48390;BME280;34643;47.964;7.982;2023-05-06T16:15:56;96569.94;;;19.93;61.78
48390;BME280;34643;47.964;7.982;2023-05-06T16:20:56;96566.50;;;19.92;61.62
48390;BME280;34643;47.964;7.982;2023-05-06T16:25:56;96572.56;;;19.93;61.73
48390;BME280;34643;47.964;7.982;2023-05-06T16:30:57;96570.78;;;19.93;61.67
48390;BME280;34643;47.964;7.982;2023-05-06T16:36:01;96569.00;;;19.94;61.82
48390;BME280;34643;47.964;7.982;2023-05-06T16:41:01;96555.91;;;19.94;61.77
48390;BME280;34643;47.964;7.982;2023-05-06T16:46:02;96556.72;;;19.94;61.65
48390;BME280;34643;47.964;7.982;2023-05-06T16:51:03;96556.72;;;19.94;61.67
48390;BME280;34643;47.964;7.982;2023-05-06T16:56:03;96559.34;;;19.94;61.74
48390;BME280;34643;47.964;7.982;2023-05-06T17:01:04;96551.47;;;19.94;61.69
48390;BME280;34643;47.964;7.982;2023-05-06T17:06:06;96546.22;;;19.94;61.79
48390;BME280;34643;47.964;7.982;2023-05-06T17:11:07;96545.41;;;19.94;61.75
48390;BME280;34643;47.964;7.982;2023-05-06T17:16:07;96546.22;;;19.94;61.69
48390;BME280;34643;47.964;7.982;2023-05-06T17:21:07;96549.69;;;19.95;61.76
48390;BME280;34643;47.964;7.982;2023-05-06T17:26:08;96547.09;;;19.95;61.75
48390;BME280;34643;47.964;7.982;2023-05-06T17:31:08;96547.91;;;19.96;61.72
48390;BME280;34643;47.964;7.982;2023-05-06T17:36:08;96542.66;;;19.96;61.74
48390;BME280;34643;47.964;7.982;2023-05-06T17:41:08;96545.28;;;19.96;61.79
48390;BME280;34643;47.964;7.982;2023-05-06T17:46:09;96546.09;;;19.96;61.74
48390;BME280;34643;47.964;7.982;2023-05-06T17:51:09;96550.53;;;19.96;61.78
48390;BME280;34643;47.964;7.982;2023-05-06T17:56:09;96553.16;;;19.96;61.79
48390;BME280;34643;47.964;7.982;2023-05-06T18:01:10;96561.00;;;19.96;61.86
48390;BME280;34643;47.964;7.982;2023-05-06T18:06:10;96568.84;;;19.96;61.79
48390;BME280;34643;47.964;7.982;2023-05-06T18:11:11;96556.59;;;19.96;61.89
48390;BME280;34643;47.964;7.982;2023-05-06T18:16:11;96567.06;;;19.96;61.79
48390;BME280;34643;47.964;7.982;2023-05-06T18:21:11;96579.34;;;19.96;61.80
48390;BME280;34643;47.964;7.982;2023-05-06T18:26:11;96571.47;;;19.96;61.85
48390;BME280;34643;47.964;7.982;2023-05-06T18:31:12;96583.75;;;19.95;61.83
48390;BME280;34643;47.964;7.982;2023-05-06T18:36:12;96589.81;;;19.96;61.88
48390;BME280;34643;47.964;7.982;2023-05-06T18:41:12;96593.38;;;19.94;61.80
48390;BME280;34643;47.964;7.982;2023-05-06T18:46:13;96595.06;;;19.96;61.71
48390;BME280;34643;47.964;7.982;2023-05-06T18:51:14;96589.81;;;19.96;61.75
48390;BME280;34643;47.964;7.982;2023-05-06T18:56:14;96599.47;;;19.95;61.76
48390;BME280;34643;47.964;7.982;2023-05-06T19:01:15;96603.88;;;19.94;61.71
48390;BME280;34643;47.964;7.982;2023-05-06T19:06:15;96604.84;;;19.93;61.79
48390;BME280;34643;47.964;7.982;2023-05-06T19:11:16;96610.91;;;19.94;61.75
48390;BME280;34643;47.964;7.982;2023-05-06T19:16:17;96605.53;;;19.96;61.86
48390;BME280;34643;47.964;7.982;2023-05-06T19:21:18;96607.47;;;19.93;61.79
48390;BME280;34643;47.964;7.982;2023-05-06T19:26:18;96613.53;;;19.94;61.81
48390;BME280;34643;47.964;7.982;2023-05-06T19:31:18;96612.69;;;19.93;61.91
48390;BME280;34643;47.964;7.982;2023-05-06T19:36:19;96610.22;;;19.92;61.88
48390;BME280;34643;47.964;7.982;2023-05-06T19:41:19;96617.09;;;19.93;61.84
48390;BME280;34643;47.964;7.982;2023-05-06T19:46:20;96611.84;;;19.93;61.97
48390;BME280;34643;47.964;7.982;2023-05-06T19:51:20;96616.28;;;19.92;61.82
48390;BME280;34643;47.964;7.982;2023-05-06T19:56:20;96608.41;;;19.92;61.83
48390;BME280;34643;47.964;7.982;2023-05-06T20:01:20;96603.31;;;19.91;61.82
48390;BME280;34643;47.964;7.982;2023-05-06T20:06:22;96608.41;;;19.92;61.90
48390;BME280;34643;47.964;7.982;2023-05-06T20:11:22;96610.22;;;19.92;61.91
48390;BME280;34643;47.964;7.982;2023-05-06T20:16:24;96605.91;;;19.91;61.79
48390;BME280;34643;47.964;7.982;2023-05-06T20:21:24;96608.53;;;19.91;61.71
48390;BME280;34643;47.964;7.982;2023-05-06T20:26:25;96605.91;;;19.91;61.77
48390;BME280;34643;47.964;7.982;2023-05-06T20:31:25;96590.22;;;19.91;61.78
48390;BME280;34643;47.964;7.982;2023-05-06T20:36:25;96585.94;;;19.90;61.75
48390;BME280;34643;47.964;7.982;2023-05-06T20:41:26;96595.44;;;19.91;61.79
48390;BME280;34643;47.964;7.982;2023-05-06T20:46:26;96597.25;;;19.90;61.69
48390;BME280;34643;47.964;7.982;2023-05-06T20:51:26;96597.25;;;19.90;61.64
48390;BME280;34643;47.964;7.982;2023-05-06T20:56:27;96602.47;;;19.90;61.61
48390;BME280;34643;47.964;7.982;2023-05-06T21:01:27;96601.66;;;19.90;61.40
48390;BME280;34643;47.964;7.982;2023-05-06T21:06:28;96597.38;;;19.89;61.50
48390;BME280;34643;47.964;7.982;2023-05-06T21:11:28;96596.44;;;19.90;61.49
48390;BME280;34643;47.964;7.982;2023-05-06T21:16:28;96592.97;;;19.89;61.58
48390;BME280;34643;47.964;7.982;2023-05-06T21:21:29;96590.34;;;19.89;61.53
48390;BME280;34643;47.964;7.982;2023-05-06T21:26:30;96600.00;;;19.89;61.49
48390;BME280;34643;47.964;7.982;2023-05-06T21:31:31;96603.44;;;19.89;61.43
48390;BME280;34643;47.964;7.982;2023-05-06T21:36:31;96599.19;;;19.88;61.49
48390;BME280;34643;47.964;7.982;2023-05-06T21:41:31;96587.03;;;19.87;61.45
48390;BME280;34643;47.964;7.982;2023-05-06T21:46:34;96589.66;;;19.87;61.48
48390;BME280;34643;47.964;7.982;2023-05-06T21:51:35;96590.63;;;19.86;61.38
48390;BME280;34643;47.964;7.982;2023-05-06T21:56:36;96591.44;;;19.87;61.36
48390;BME280;34643;47.964;7.982;2023-05-06T22:01:36;96591.44;;;19.87;61.37
48390;BME280;34643;47.964;7.982;2023-05-06T22:06:36;96590.63;;;19.86;61.45
48390;BME280;34643;47.964;7.982;2023-05-06T22:11:37;96590.63;;;19.86;61.44
48390;BME280;34643;47.964;7.982;2023-05-06T22:16:37;96588.00;;;19.86;61.30
48390;BME280;34643;47.964;7.982;2023-05-06T22:21:38;96582.91;;;19.85;61.39
48390;BME280;34643;47.964;7.982;2023-05-06T22:26:38;96579.31;;;19.86;61.36
48390;BME280;34643;47.964;7.982;2023-05-06T22:31:39;96577.66;;;19.85;61.38
48390;BME280;34643;47.964;7.982;2023-05-06T22:36:40;96580.28;;;19.85;61.34
48390;BME280;34643;47.964;7.982;2023-05-06T22:41:40;96575.88;;;19.85;61.25
48390;BME280;34643;47.964;7.982;2023-05-06T22:46:40;96582.91;;;19.85;61.31
48390;BME280;34643;47.964;7.982;2023-05-06T22:51:40;96577.78;;;19.83;61.30
48390;BME280;34643;47.964;7.982;2023-05-06T22:56:41;96582.91;;;19.85;61.47
48390;BME280;34643;47.964;7.982;2023-05-06T23:01:41;96583.84;;;19.84;61.26
48390;BME280;34643;47.964;7.982;2023-05-06T23:06:41;96579.59;;;19.83;61.41
48390;BME280;34643;47.964;7.982;2023-05-06T23:11:44;96566.50;;;19.83;61.30
48390;BME280;34643;47.964;7.982;2023-05-06T23:16:44;96572.56;;;19.83;61.28
48390;BME280;34643;47.964;7.982;2023-05-06T23:21:45;96563.03;;;19.82;61.25
48390;BME280;34643;47.964;7.982;2023-05-06T23:26:45;96566.63;;;19.81;61.28
48390;BME280;34643;47.964;7.982;2023-05-06T23:31:45;96563.03;;;19.82;61.33
48390;BME280;34643;47.964;7.982;2023-05-06T23:36:45;96556.16;;;19.81;61.29
48390;BME280;34643;47.964;7.982;2023-05-06T23:41:46;96550.06;;;19.81;61.36
48390;BME280;34643;47.964;7.982;2023-05-06T23:46:46;96560.53;;;19.81;61.33
48390;BME280;34643;47.964;7.982;2023-05-06T23:51:46;96554.47;;;19.80;61.36
48390;BME280;34643;47.964;7.982;2023-05-06T23:56:46;96550.22;;;19.79;61.35
